Time;durP1;ratioP1;P1;durP2;ratioP2;P2;SDS_P1;SDS_P2;PMS_P1;PMS_P2;Temp;Humidity;BMP_temperature;BMP_pressure;BME280_temperature;BME280_humidity;BME280_pressure;Samples;Min_cycle;Max_cycle;Signal;HPM_P1;HPM_P2
2022/02/04 00:22:07;;;;;;;22.67;12.73;;;8.20;94.10;;;;;;4984272;28;20092;-82
2022/02/04 00:24:33;;;;;;;23.60;14.18;;;8.30;94.20;;;;;;5013929;28;20132;-83
2022/02/04 00:27:11;;;;;;;22.58;13.68;;;8.20;94.10;;;;;;4997620;28;20042;-82
2022/02/04 00:29:50;;;;;;;28.50;16.90;;;8.20;94.10;;;;;;4998128;28;20056;-82
2022/02/04 00:32:23;;;;;;;29.98;17.58;;;8.20;94.10;;;;;;4996314;28;20417;-82
2022/02/04 00:34:58;;;;;;;30.23;17.23;;;8.30;94.10;;;;;;4980958;28;20049;-83
2022/02/04 00:37:37;;;;;;;28.55;16.27;;;8.30;94.10;;;;;;5012548;28;20395;-83
2022/02/04 00:40:14;;;;;;;28.63;17.75;;;8.30;94.10;;;;;;5012517;28;20046;-83
2022/02/04 00:42:44;;;;;;;32.10;18.73;;;8.30;94.00;;;;;;4998605;28;20037;-82
2022/02/04 00:48:42;;;;;;;25.20;15.88;;;8.30;94.00;;;;;;4998006;28;20049;-83
2022/02/04 00:51:19;;;;;;;27.48;15.95;;;8.30;94.00;;;;;;4968706;28;20383;-82
2022/02/04 00:56:45;;;;;;;27.10;16.13;;;8.30;94.00;;;;;;4981025;28;20060;-84
2022/02/04 01:27:09;;;;;;;25.75;16.35;;;8.30;93.90;;;;;;5013480;28;20042;-83
2022/02/04 01:29:47;;;;;;;28.27;16.63;;;8.30;93.90;;;;;;4995832;28;20251;-84
2022/02/04 01:32:16;;;;;;;27.63;15.38;;;8.30;93.90;;;;;;5011965;28;20045;-84
2022/02/04 01:34:43;;;;;;;23.50;14.35;;;8.30;93.90;;;;;;5011598;28;20069;-84
2022/02/04 01:37:13;;;;;;;23.40;13.45;;;8.30;93.90;;;;;;4995836;28;20042;-85
2022/02/04 01:39:40;;;;;;;23.42;13.55;;;8.30;94.20;;;;;;4995290;28;20049;-84
2022/02/04 01:42:08;;;;;;;21.77;13.43;;;8.30;93.90;;;;;;4995507;28;20096;-83
2022/02/04 01:44:35;;;;;;;21.20;13.10;;;8.30;93.90;;;;;;5011854;28;20042;-83
2022/02/04 01:47:04;;;;;;;20.58;11.80;;;8.30;93.90;;;;;;5011691;28;20056;-84
2022/02/04 01:49:31;;;;;;;22.15;13.10;;;8.30;94.00;;;;;;4995732;28;20049;-84
2022/02/04 01:51:58;;;;;;;24.40;13.38;;;8.30;93.90;;;;;;4996324;28;20049;-83
2022/02/04 01:54:26;;;;;;;23.65;13.95;;;8.30;93.90;;;;;;4995699;28;20046;-85
2022/02/04 01:56:53;;;;;;;22.45;12.85;;;8.30;93.90;;;;;;5011618;28;20046;-85
2022/02/04 01:59:27;;;;;;;20.40;11.60;;;8.30;93.90;;;;;;4995175;28;20053;-83
2022/02/04 02:01:54;;;;;;;21.25;12.90;;;8.30;93.90;;;;;;5011433;28;20050;-84
2022/02/04 02:04:22;;;;;;;19.77;12.38;;;8.30;93.90;;;;;;4995012;28;20042;-85
2022/02/04 02:07:01;;;;;;;18.48;11.00;;;8.30;93.90;;;;;;4995911;28;20041;-85
2022/02/04 02:09:38;;;;;;;19.60;11.95;;;8.30;93.90;;;;;;4996024;28;20042;-85
2022/02/04 02:12:10;;;;;;;21.33;12.13;;;8.30;94.00;;;;;;5011347;28;20065;-85
2022/02/04 02:14:38;;;;;;;19.73;11.50;;;8.30;93.90;;;;;;4979582;28;20506;-85
2022/02/04 02:58:07;;;;;;;16.65;9.23;;;8.30;93.80;;;;;;5014641;28;20050;-85
2022/02/04 03:00:54;;;;;;;17.38;9.90;;;8.30;93.80;;;;;;4998490;28;20076;-84
2022/02/04 03:03:29;;;;;;;15.80;10.45;;;8.30;93.80;;;;;;5014095;28;20042;-85
2022/02/04 03:05:57;;;;;;;18.05;10.40;;;8.30;93.80;;;;;;5014910;28;20038;-84
2022/02/04 03:08:28;;;;;;;19.20;10.73;;;8.30;93.80;;;;;;4998397;28;20699;-84
2022/02/04 03:10:59;;;;;;;20.65;12.90;;;8.30;93.80;;;;;;5014478;28;20167;-85
2022/02/04 03:13:30;;;;;;;20.48;12.63;;;8.30;93.70;;;;;;4998652;28;20045;-84
2022/02/04 03:16:06;;;;;;;16.85;11.45;;;8.30;93.70;;;;;;4982724;28;20470;-84
2022/02/04 03:18:37;;;;;;;20.27;12.02;;;8.30;93.70;;;;;;5014333;28;20065;-83
2022/02/04 03:21:12;;;;;;;16.70;10.18;;;8.30;93.70;;;;;;4981714;28;20088;-85
2022/02/04 03:23:43;;;;;;;16.73;10.07;;;8.30;93.70;;;;;;4997934;28;20050;-84
2022/02/04 03:26:56;;;;;;;15.55;9.82;;;8.30;93.70;;;;;;4998039;28;20049;-84
2022/02/04 03:29:01;;;;;;;16.52;9.63;;;8.30;93.70;;;;;;4979489;28;20132;-85
2022/02/04 03:31:45;;;;;;;13.82;9.05;;;8.30;93.70;;;;;;5014064;28;20057;-84
2022/02/04 03:34:15;;;;;;;11.98;7.18;;;8.30;93.70;;;;;;4998141;28;20041;-85
2022/02/04 03:36:42;;;;;;;13.13;8.48;;;8.30;93.70;;;;;;4997661;28;20100;-84
2022/02/04 03:39:09;;;;;;;11.82;6.40;;;8.30;93.60;;;;;;4997754;28;20053;-85
2022/02/04 03:41:37;;;;;;;11.23;7.57;;;8.30;93.70;;;;;;5013724;28;20079;-85
2022/02/04 03:44:04;;;;;;;10.90;6.97;;;8.30;93.70;;;;;;4981669;28;20038;-85
2022/02/04 03:46:35;;;;;;;11.23;6.90;;;8.40;93.70;;;;;;5014277;28;20033;-85
2022/02/04 03:49:03;;;;;;;10.00;6.10;;;8.40;93.70;;;;;;5013605;28;20050;-84
2022/02/04 03:51:32;;;;;;;11.68;6.93;;;8.40;93.70;;;;;;5013246;28;20085;-85
2022/02/04 03:54:12;;;;;;;11.68;6.85;;;8.40;93.70;;;;;;4998636;28;20055;-84
2022/02/04 03:56:41;;;;;;;12.20;6.47;;;8.40;93.60;;;;;;4997752;28;20058;-83
2022/02/04 03:59:08;;;;;;;11.73;6.85;;;8.40;93.60;;;;;;5009507;28;20406;-85
2022/02/04 04:01:41;;;;;;;9.73;4.78;;;8.40;93.60;;;;;;4962371;28;20046;-85
2022/02/04 04:04:10;;;;;;;12.20;6.33;;;8.40;93.60;;;;;;4994524;28;20410;-83
2022/02/04 04:06:48;;;;;;;9.32;5.43;;;8.40;93.60;;;;;;4993737;28;20077;-84
2022/02/04 04:09:15;;;;;;;10.60;6.38;;;8.40;93.60;;;;;;4994099;28;20122;-84
2022/02/04 04:11:47;;;;;;;9.25;5.30;;;8.40;93.60;;;;;;4962125;28;20054;-84
2022/02/04 04:14:19;;;;;;;15.10;7.22;;;8.40;93.60;;;;;;4977810;28;20057;-84
2022/02/04 04:16:49;;;;;;;11.48;6.47;;;8.40;93.50;;;;;;4993715;28;20038;-85
2022/02/04 04:19:16;;;;;;;11.20;5.80;;;8.50;93.50;;;;;;4977319;28;20054;-84
2022/02/04 04:21:44;;;;;;;11.50;6.97;;;8.40;93.50;;;;;;4977729;28;20125;-85
2022/02/04 04:24:14;;;;;;;11.98;6.95;;;8.40;93.40;;;;;;4993632;28;20038;-86
2022/02/04 04:26:42;;;;;;;12.80;7.70;;;8.40;93.40;;;;;;4961888;28;20517;-85
2022/02/04 04:29:10;;;;;;;12.32;7.10;;;8.50;93.40;;;;;;4978238;28;20043;-84
2022/02/04 04:31:37;;;;;;;11.52;7.43;;;8.50;93.40;;;;;;4993990;28;20133;-84
2022/02/04 04:34:04;;;;;;;10.10;6.15;;;8.40;93.30;;;;;;4993711;28;20073;-85
2022/02/04 04:36:31;;;;;;;12.23;7.10;;;8.40;93.30;;;;;;4977569;28;20053;-85
2022/02/04 04:39:11;;;;;;;13.57;6.82;;;8.40;93.30;;;;;;4976987;28;20054;-85
2022/02/04 05:28:43;;;;;;;9.93;5.28;;;8.30;93.00;;;;;;5011467;28;20038;-86
2022/02/04 05:31:10;;;;;;;9.20;5.35;;;8.40;93.00;;;;;;5012479;28;20121;-86
2022/02/04 05:33:38;;;;;;;11.02;4.93;;;8.30;93.00;;;;;;4979576;28;20049;-85
2022/02/04 05:36:08;;;;;;;9.95;5.07;;;8.30;93.00;;;;;;4996154;28;20057;-85
2022/02/04 05:38:38;;;;;;;8.63;4.40;;;8.40;93.10;;;;;;5012348;28;20052;-84
2022/02/04 05:41:10;;;;;;;7.65;4.43;;;8.40;93.00;;;;;;4995537;28;20421;-84
2022/02/04 05:43:40;;;;;;;8.77;4.13;;;8.40;93.00;;;;;;5012231;28;20046;-85
2022/02/04 05:46:25;;;;;;;7.65;3.90;;;8.40;93.00;;;;;;4982908;28;20085;-84
2022/02/04 05:48:55;;;;;;;7.60;4.28;;;8.40;93.00;;;;;;4995637;28;20112;-85
2022/02/04 05:56:48;;;;;;;7.57;4.43;;;8.40;92.90;;;;;;4995183;28;20494;-85
2022/02/04 06:00:04;;;;;;;7.15;3.55;;;8.40;92.90;;;;;;5011548;28;20049;-83
2022/02/04 06:02:40;;;;;;;9.77;3.85;;;8.40;92.90;;;;;;5011292;28;20099;-85
2022/02/04 06:08:44;;;;;;;6.10;3.00;;;8.40;92.90;;;;;;4974522;28;20058;-82
2022/02/04 06:11:49;;;;;;;5.63;3.40;;;8.30;92.90;;;;;;5016855;28;20078;-82
2022/02/04 06:14:33;;;;;;;5.85;3.25;;;8.40;92.90;;;;;;4975099;28;20049;-81
2022/02/04 06:22:31;;;;;;;5.35;2.72;;;8.40;92.90;;;;;;4987798;28;20042;-81
2022/02/04 06:24:58;;;;;;;6.38;3.10;;;8.40;92.90;;;;;;4998849;28;20518;-83
2022/02/04 06:27:26;;;;;;;4.65;2.97;;;8.40;92.90;;;;;;4999290;28;20137;-82
2022/02/04 06:29:56;;;;;;;4.45;2.58;;;8.40;92.90;;;;;;4999529;28;20036;-82
2022/02/04 06:32:27;;;;;;;6.32;3.22;;;8.40;92.90;;;;;;4999264;28;20490;-82
2022/02/04 06:34:54;;;;;;;5.03;2.80;;;8.40;92.90;;;;;;4998772;28;20069;-82
2022/02/04 06:37:25;;;;;;;5.43;2.85;;;8.40;92.90;;;;;;4998311;28;20149;-81
2022/02/04 06:39:56;;;;;;;5.45;2.45;;;8.40;92.90;;;;;;4998961;28;20050;-83
2022/02/04 06:42:29;;;;;;;5.90;3.00;;;8.40;93.20;;;;;;4998595;28;20038;-82
2022/02/04 06:45:02;;;;;;;6.70;3.25;;;8.40;92.90;;;;;;5015315;28;20406;-82
2022/02/04 06:47:36;;;;;;;4.70;2.15;;;8.40;92.90;;;;;;4998768;28;20042;-84
2022/02/04 06:50:21;;;;;;;4.97;2.13;;;8.40;92.90;;;;;;5014434;28;20050;-82
2022/02/04 06:52:53;;;;;;;6.00;2.58;;;8.40;92.90;;;;;;4998656;28;20494;-83
2022/02/04 06:56:14;;;;;;;5.22;2.92;;;8.40;92.80;;;;;;4982355;28;20046;-82
2022/02/04 06:58:55;;;;;;;4.95;2.45;;;8.40;92.80;;;;;;4986334;28;20054;-83
2022/02/04 07:01:40;;;;;;;5.15;2.03;;;8.40;92.70;;;;;;5014732;28;20046;-82
2022/02/04 07:04:20;;;;;;;4.75;2.28;;;8.40;92.80;;;;;;4998768;28;20506;-84
2022/02/04 07:20:18;;;;;;;5.20;2.60;;;8.50;92.70;;;;;;4857778;29;20135;-83
2022/02/04 07:23:43;;;;;;;;;;;;;;;;;;;;;
2022/02/04 07:32:05;;;;;;;4.90;3.00;;;8.50;92.60;;;;;;4974513;28;20119;-85
2022/02/04 07:43:17;;;;;;;;;;;8.60;92.60;;;;;;5014765;28;20054;-84
2022/02/04 07:46:45;;;;;;;6.97;3.55;;;8.60;92.60;;;;;;4982259;28;19928;-83
2022/02/04 07:49:18;;;;;;;5.15;2.90;;;8.60;92.50;;;;;;4990419;28;20057;-85
2022/02/04 07:51:47;;;;;;;6.03;2.72;;;8.60;92.80;;;;;;5013952;28;20046;-84
2022/02/04 07:54:23;;;;;;;7.97;3.10;;;8.60;92.60;;;;;;5013159;28;20417;-84
2022/02/04 07:56:50;;;;;;;6.03;3.28;;;8.60;92.60;;;;;;5013747;28;20494;-84
2022/02/04 07:59:17;;;;;;;4.57;2.72;;;8.60;92.60;;;;;;4997738;28;20045;-84
2022/02/04 08:01:54;;;;;;;4.30;2.45;;;8.60;92.50;;;;;;5013457;28;20034;-85
2022/02/04 08:04:30;;;;;;;4.50;2.50;;;8.60;92.60;;;;;;4980739;28;20097;-85
2022/02/04 08:07:20;;;;;;;5.30;2.85;;;8.60;92.60;;;;;;5013430;28;20038;-84
2022/02/04 08:13:00;;;;;;;6.65;3.60;;;8.60;92.60;;;;;;5012746;28;20520;-85
2022/02/04 08:18:31;;;;;;;5.00;3.10;;;8.60;92.60;;;;;;5014431;28;20117;-86
2022/02/04 08:52:14;;;;;;;7.38;3.90;;;8.70;92.60;;;;;;4980739;28;20050;-86
2022/02/04 08:55:04;;;;;;;5.95;3.53;;;8.70;92.70;;;;;;4995639;28;20046;-85
2022/02/04 08:57:45;;;;;;;5.13;3.53;;;8.70;92.70;;;;;;4995124;28;20168;-86
2022/02/04 09:00:32;;;;;;;7.28;4.38;;;8.70;92.70;;;;;;4967683;28;20362;-85
2022/02/04 09:08:28;;;;;;;7.97;5.05;;;8.70;92.60;;;;;;4970361;28;20058;-85
2022/02/04 09:17:49;;;;;;;5.97;3.72;;;8.80;92.60;;;;;;4933756;29;20087;-84
2022/02/04 09:28:25;;;;;;;7.18;3.92;;;8.90;92.50;;;;;;4991109;28;20513;-83
2022/02/04 09:31:46;;;;;;;6.60;4.30;;;9.00;92.50;;;;;;4938485;28;20051;-83
2022/02/04 09:34:24;;;;;;;6.82;4.65;;;9.00;92.70;;;;;;4955556;28;20046;-84
2022/02/04 09:37:21;;;;;;;6.55;3.55;;;9.00;92.40;;;;;;4937252;28;20061;-83
2022/02/04 09:40:03;;;;;;;7.45;4.47;;;9.00;92.50;;;;;;4956687;28;20137;-84
2022/02/04 09:42:45;;;;;;;6.75;4.05;;;8.90;92.60;;;;;;4962087;28;20085;-83
2022/02/04 09:45:20;;;;;;;6.88;4.25;;;8.80;92.80;;;;;;4947449;28;20047;-83
2022/02/04 09:48:06;;;;;;;5.85;3.70;;;8.80;92.90;;;;;;4961904;28;20047;-84
2022/02/04 09:50:40;;;;;;;6.20;4.28;;;8.80;93.00;;;;;;4945934;28;20523;-84
2022/02/04 10:06:43;;;;;;;7.47;5.15;;;8.70;93.40;;;;;;5004424;28;20070;-84
2022/02/04 10:14:58;;;;;;;7.35;5.13;;;8.70;93.60;;;;;;5017953;28;20053;-84
2022/02/04 10:18:09;;;;;;;6.88;4.68;;;8.70;93.60;;;;;;5018376;28;20063;-84
2022/02/04 10:21:02;;;;;;;6.68;4.82;;;8.80;93.50;;;;;;5017783;28;20060;-84
2022/02/04 10:24:22;;;;;;;6.10;4.50;;;8.90;93.60;;;;;;4992778;28;20046;-84
2022/02/04 10:27:22;;;;;;;6.40;4.38;;;8.90;93.50;;;;;;4999416;28;20051;-84
2022/02/04 10:30:06;;;;;;;7.50;5.05;;;9.00;93.50;;;;;;5002479;28;20057;-85
2022/02/04 10:32:44;;;;;;;6.32;4.43;;;9.00;93.40;;;;;;5017686;28;20505;-84
2022/02/04 10:35:34;;;;;;;6.97;4.22;;;9.10;93.30;;;;;;5017744;28;20049;-84
2022/02/04 10:38:19;;;;;;;5.68;3.72;;;9.10;93.30;;;;;;5018016;28;20046;-84
2022/02/04 10:41:18;;;;;;;5.53;3.70;;;9.20;93.30;;;;;;5001910;28;20057;-85
2022/02/04 10:44:22;;;;;;;4.70;3.03;;;9.20;93.20;;;;;;5002413;28;20557;-83
2022/02/04 10:47:00;;;;;;;4.93;2.72;;;9.10;93.10;;;;;;5017960;28;20108;-85
2022/02/04 10:50:03;;;;;;;6.22;3.92;;;9.10;93.20;;;;;;4987141;28;20058;-84
2022/02/04 10:55:55;;;;;;;3.63;2.50;;;9.00;93.40;;;;;;5015720;28;20041;-86
2022/02/04 11:05:02;;;;;;;4.70;3.03;;;9.10;93.30;;;;;;5015552;28;20056;-86
2022/02/04 11:08:12;;;;;;;4.05;2.65;;;9.20;93.20;;;;;;5014371;28;20064;-85
2022/02/04 11:36:22;;;;;;;3.50;2.70;;;9.60;92.50;;;;;;5012998;28;20529;-83
2022/02/04 11:51:39;;;;;;;4.78;2.70;;;9.90;92.10;;;;;;4957304;28;20062;-84
2022/02/04 11:57:05;;;;;;;4.65;2.92;;;9.90;91.80;;;;;;5013068;28;20140;-83
2022/02/04 11:59:43;;;;;;;5.20;2.25;;;10.00;91.60;;;;;;5013355;28;20117;-83
2022/02/04 12:02:33;;;;;;;3.38;2.10;;;10.00;91.60;;;;;;4997436;28;20498;-83
2022/02/04 12:05:24;;;;;;;4.30;2.33;;;10.00;91.40;;;;;;5013016;28;20113;-83
2022/02/04 12:08:15;;;;;;;3.83;2.22;;;10.00;91.40;;;;;;5012956;28;20042;-83
2022/02/04 12:10:55;;;;;;;3.92;2.40;;;10.00;91.20;;;;;;5013164;28;20046;-80
2022/02/04 12:13:24;;;;;;;3.97;2.30;;;10.00;91.30;;;;;;5014520;28;20049;-84
2022/02/04 12:16:06;;;;;;;3.70;2.05;;;9.90;91.20;;;;;;5013013;28;20088;-83
2022/02/04 12:18:52;;;;;;;4.20;2.85;;;10.00;91.30;;;;;;4972680;28;20046;-81
2022/02/04 12:21:20;;;;;;;4.75;2.33;;;9.90;91.00;;;;;;4978357;28;20066;-81
2022/02/04 12:23:53;;;;;;;3.33;2.00;;;9.90;91.00;;;;;;4975126;28;20039;-79
2022/02/04 12:26:34;;;;;;;5.20;2.80;;;9.90;90.90;;;;;;4942465;28;20396;-85
2022/02/04 12:29:06;;;;;;;3.72;2.20;;;9.90;90.80;;;;;;4958155;28;20047;-82
2022/02/04 12:31:43;;;;;;;3.95;2.15;;;9.90;91.00;;;;;;4974523;28;20053;-79
2022/02/04 12:34:14;;;;;;;3.55;2.05;;;9.90;90.90;;;;;;4974089;28;20051;-80
2022/02/04 12:36:45;;;;;;;3.38;1.65;;;9.90;90.80;;;;;;4974088;28;20130;-80
2022/02/04 12:39:17;;;;;;;3.50;1.58;;;9.90;90.80;;;;;;4973771;28;20047;-79
2022/02/04 12:41:48;;;;;;;3.90;1.70;;;9.90;90.80;;;;;;4974078;28;20097;-80
2022/02/04 12:44:22;;;;;;;3.55;1.85;;;9.90;90.70;;;;;;4973521;28;20062;-80
2022/02/04 12:46:55;;;;;;;4.32;2.10;;;9.90;90.80;;;;;;4973601;28;20399;-80
2022/02/04 12:49:27;;;;;;;3.10;1.73;;;9.90;90.60;;;;;;4957413;28;20050;-79
2022/02/04 12:52:16;;;;;;;3.70;2.10;;;9.80;90.70;;;;;;4991859;28;20068;-82
2022/02/04 13:08:24;;;;;;;3.25;1.55;;;9.70;90.60;;;;;;4993453;28;20043;-85
2022/02/04 13:11:02;;;;;;;3.88;2.20;;;9.70;90.70;;;;;;4993690;28;20053;-84
2022/02/04 13:13:45;;;;;;;3.97;2.17;;;9.70;90.60;;;;;;5006836;28;20128;-84
2022/02/04 13:16:23;;;;;;;3.53;1.85;;;9.70;90.50;;;;;;5011710;28;20056;-84
2022/02/04 13:18:51;;;;;;;;;;;9.60;90.30;;;;;;4997292;28;20052;-86
2022/02/04 13:21:22;;;;;;;3.17;1.75;;;9.60;90.30;;;;;;5012133;28;19925;-84
2022/02/04 13:23:51;;;;;;;3.38;1.73;;;9.50;90.30;;;;;;5012189;28;20148;-84
2022/02/04 13:26:24;;;;;;;3.33;1.73;;;9.50;90.40;;;;;;4966701;28;20073;-83
2022/02/04 13:29:00;;;;;;;3.70;1.70;;;9.60;90.40;;;;;;4996204;28;20049;-86
2022/02/04 13:31:28;;;;;;;3.15;1.48;;;9.50;90.30;;;;;;5012330;28;20073;-85
2022/02/04 13:34:10;;;;;;;3.42;1.73;;;9.50;90.30;;;;;;4996688;28;20136;-87
2022/02/04 13:44:38;;;;;;;3.40;1.80;;;9.10;90.90;;;;;;5007091;28;20074;-84
2022/02/04 13:50:08;;;;;;;4.65;1.83;;;8.90;91.20;;;;;;5012925;28;20041;-82
2022/02/04 13:52:53;;;;;;;4.60;1.90;;;8.80;91.30;;;;;;5011872;28;20465;-84
2022/02/04 13:58:46;;;;;;;4.20;2.30;;;8.70;91.50;;;;;;5013229;28;20041;-84
2022/02/04 14:01:24;;;;;;;3.30;2.10;;;8.60;91.80;;;;;;5011891;28;20128;-87
2022/02/04 14:03:59;;;;;;;3.97;2.30;;;8.50;92.00;;;;;;4995947;28;20405;-86
2022/02/04 14:06:29;;;;;;;3.85;2.10;;;8.40;92.10;;;;;;5011853;28;20165;-85
2022/02/04 14:11:39;;;;;;;5.53;2.78;;;8.30;92.40;;;;;;5011248;28;20489;-83
2022/02/04 14:14:11;;;;;;;4.93;2.65;;;8.30;92.60;;;;;;5011289;28;20434;-82
2022/02/04 14:16:41;;;;;;;8.43;3.95;;;8.20;92.60;;;;;;5011432;28;20054;-81
2022/02/04 14:19:09;;;;;;;5.30;3.10;;;8.20;92.90;;;;;;5011842;28;20038;-82
2022/02/04 14:21:42;;;;;;;6.65;3.42;;;8.10;93.00;;;;;;4979204;28;20037;-82
2022/02/04 14:24:12;;;;;;;5.40;2.67;;;8.10;93.00;;;;;;4964525;28;20053;-83
2022/02/04 14:26:46;;;;;;;5.15;3.08;;;8.10;93.10;;;;;;5012637;28;20042;-81
2022/02/04 14:29:35;;;;;;;6.82;3.60;;;8.00;93.20;;;;;;5000287;28;20056;-81
2022/02/04 14:32:19;;;;;;;5.72;3.40;;;8.00;93.30;;;;;;4999425;28;20046;-83
2022/02/04 14:35:09;;;;;;;5.78;3.35;;;8.00;93.40;;;;;;5015288;28;20205;-80
2022/02/04 14:49:24;;;;;;;6.47;2.58;;;7.90;93.60;;;;;;5002281;28;20041;-89
2022/02/04 14:52:16;;;;;;;5.82;2.95;;;8.00;93.70;;;;;;5002263;28;20104;-86
2022/02/04 15:01:30;;;;;;;3.45;1.00;;;7.50;93.60;;;;;;5015553;28;20046;-88
2022/02/04 15:04:35;;;;;;;1.05;0.50;;;7.10;93.80;;;;;;4998454;28;20092;-83
2022/02/04 15:07:07;;;;;;;0.88;0.30;;;6.70;94.20;;;;;;5015471;28;20042;-82
2022/02/04 15:09:41;;;;;;;1.05;0.30;;;6.40;94.40;;;;;;5012874;28;20132;-88
2022/02/04 15:12:16;;;;;;;0.43;0.20;;;6.30;94.60;;;;;;4985247;28;20138;-84
2022/02/04 15:14:45;;;;;;;0.73;0.10;;;6.10;94.70;;;;;;5014414;28;20149;-90
2022/02/04 15:17:20;;;;;;;0.20;0.10;;;6.00;94.70;;;;;;5014276;28;20140;-87
2022/02/04 15:19:50;;;;;;;2.53;0.10;;;5.80;94.80;;;;;;4998149;28;20069;-86
2022/02/04 15:22:25;;;;;;;0.95;0.10;;;5.70;94.90;;;;;;4982895;28;20124;-86
2022/02/04 15:25:16;;;;;;;0.35;0.10;;;5.60;94.90;;;;;;4983518;28;20046;-87
2022/02/04 15:31:14;;;;;;;0.10;0.10;;;5.30;95.00;;;;;;4999157;28;20052;-91
2022/02/04 15:38:06;;;;;;;0.10;0.10;;;5.10;95.10;;;;;;4986854;28;20053;-88
2022/02/04 15:40:33;;;;;;;0.00;0.00;;;5.00;95.10;;;;;;5014567;28;20084;-83
2022/02/04 15:43:40;;;;;;;0.47;0.10;;;4.90;95.10;;;;;;4998709;28;20153;-87
2022/02/04 15:49:15;;;;;;;1.10;0.20;;;4.90;95.20;;;;;;4997988;28;20042;-92
2022/02/04 16:03:34;;;;;;;0.85;0.20;;;4.80;95.20;;;;;;4998627;28;20494;-92
2022/02/04 16:06:16;;;;;;;0.70;0.22;;;4.70;95.20;;;;;;5015965;28;20125;-91
2022/02/04 16:08:45;;;;;;;1.88;0.40;;;4.70;95.20;;;;;;4983457;28;20084;-93
2022/02/04 16:11:32;;;;;;;1.30;0.40;;;4.70;95.20;;;;;;4983389;28;20050;-91
2022/02/04 16:14:30;;;;;;;1.02;0.50;;;4.70;95.20;;;;;;4984725;28;20097;-92
2022/02/04 16:17:12;;;;;;;1.73;0.80;;;4.80;95.30;;;;;;4998358;28;20144;-91
2022/02/04 16:19:47;;;;;;;3.20;0.90;;;4.70;95.20;;;;;;5014568;28;20057;-89
2022/02/04 16:22:57;;;;;;;1.63;0.80;;;4.60;95.20;;;;;;4981927;28;20100;-86
2022/02/04 16:25:40;;;;;;;1.38;0.68;;;4.70;95.30;;;;;;5014132;28;20247;-84
2022/02/04 16:31:09;;;;;;;1.98;0.80;;;4.70;95.30;;;;;;5015151;28;20050;-93
2022/02/04 16:33:38;;;;;;;;;;;4.70;95.30;;;;;;4995556;28;20116;-87
2022/02/04 16:36:20;;;;;;;1.25;0.50;;;4.60;95.30;;;;;;5015925;28;19947;-87
2022/02/04 16:38:55;;;;;;;1.35;0.60;;;4.60;95.30;;;;;;4998071;28;20057;-89
2022/02/04 16:44:39;;;;;;;1.13;0.50;;;4.60;95.30;;;;;;5029816;28;20046;-89
2022/02/04 16:47:17;;;;;;;0.95;0.50;;;4.50;95.30;;;;;;5013434;28;20042;-87
2022/02/04 16:49:45;;;;;;;0.95;0.43;;;4.60;95.40;;;;;;4979751;28;20054;-84
2022/02/04 16:52:12;;;;;;;2.05;0.68;;;4.60;95.40;;;;;;4996049;28;20474;-83
2022/02/04 16:54:43;;;;;;;1.02;0.70;;;4.50;95.30;;;;;;5013236;28;20050;-84
2022/02/04 16:57:14;;;;;;;3.25;1.80;;;4.50;95.40;;;;;;5013067;28;20041;-82
2022/02/04 16:59:52;;;;;;;6.93;3.72;;;4.50;95.30;;;;;;4997232;28;20097;-89
2022/02/04 17:02:20;;;;;;;5.88;4.00;;;4.40;95.40;;;;;;5013284;28;20077;-88
2022/02/04 17:04:47;;;;;;;5.70;3.58;;;4.40;95.40;;;;;;5012712;28;20042;-86
2022/02/04 17:07:22;;;;;;;6.03;3.38;;;4.40;95.40;;;;;;4980900;28;20046;-90
2022/02/04 17:10:08;;;;;;;3.85;2.35;;;4.40;95.40;;;;;;4998130;28;20045;-96
2022/02/04 17:12:42;;;;;;;7.68;2.55;;;4.50;95.40;;;;;;4981139;28;20137;-92
2022/02/04 17:15:16;;;;;;;5.32;1.50;;;4.50;95.40;;;;;;4997632;28;20054;-87
2022/02/04 17:18:22;;;;;;;4.70;1.33;;;4.50;95.30;;;;;;5013361;28;20061;-95
2022/02/04 17:21:36;;;;;;;2.78;1.40;;;4.50;95.30;;;;;;5010085;28;20061;-91
2022/02/04 17:28:51;;;;;;;5.15;2.25;;;4.40;95.40;;;;;;5010405;28;20027;-96
2022/02/04 17:31:39;;;;;;;4.70;2.22;;;4.30;95.40;;;;;;4994307;28;20046;-86
2022/02/04 17:34:07;;;;;;;7.28;2.90;;;4.40;95.40;;;;;;4992556;28;20046;-83
2022/02/04 17:36:36;;;;;;;4.57;2.50;;;4.40;95.40;;;;;;4992814;28;20043;-88
2022/02/04 17:39:16;;;;;;;3.08;1.45;;;4.40;95.30;;;;;;4992621;28;20042;-87
2022/02/04 17:41:45;;;;;;;3.58;1.30;;;4.40;95.30;;;;;;4975711;28;20065;-85
2022/02/04 17:44:17;;;;;;;2.80;1.50;;;4.30;95.30;;;;;;4992519;28;20466;-83
2022/02/04 17:46:48;;;;;;;4.28;1.40;;;4.30;95.30;;;;;;4992985;28;20051;-86
2022/02/04 17:49:33;;;;;;;4.13;1.90;;;4.30;95.30;;;;;;4960844;28;20088;-88
2022/02/04 17:52:15;;;;;;;4.47;2.00;;;4.30;95.40;;;;;;4994502;28;20050;-87
2022/02/04 17:55:12;;;;;;;3.83;1.80;;;4.30;95.40;;;;;;4999412;28;20046;-93
2022/02/04 17:57:54;;;;;;;6.88;2.13;;;4.20;95.40;;;;;;4994554;28;20483;-90
2022/02/04 18:08:29;;;;;;;3.85;1.27;;;4.30;95.40;;;;;;5017470;28;20049;-93
2022/02/04 18:11:17;;;;;;;3.55;1.33;;;4.20;95.40;;;;;;5000344;28;20056;-88
2022/02/04 18:13:44;;;;;;;2.65;1.00;;;4.20;95.40;;;;;;4968663;28;20069;-85
2022/02/04 18:16:14;;;;;;;4.28;1.33;;;4.20;95.40;;;;;;5016610;28;20057;-86
2022/02/04 18:22:28;;;;;;;3.50;1.20;;;4.20;95.40;;;;;;5016469;28;20108;-92
2022/02/04 18:28:23;;;;;;;5.10;1.13;;;4.30;95.40;;;;;;5016327;28;20037;-84
2022/02/04 18:30:55;;;;;;;5.40;1.40;;;4.30;95.70;;;;;;5000452;28;20041;-85
2022/02/04 18:33:23;;;;;;;5.63;1.45;;;4.40;95.30;;;;;;4998957;28;20073;-87
2022/02/04 18:35:57;;;;;;;6.05;1.20;;;4.40;95.30;;;;;;4983201;28;20144;-88
2022/02/04 18:44:29;;;;;;;3.10;0.93;;;4.30;95.20;;;;;;5016292;28;20042;-85
2022/02/04 18:47:32;;;;;;;3.72;1.00;;;4.20;95.20;;;;;;5003093;28;20453;-86
2022/02/04 18:50:07;;;;;;;4.47;1.55;;;4.20;95.30;;;;;;5017273;28;20037;-84
2022/02/04 18:52:57;;;;;;;4.88;1.83;;;4.30;95.40;;;;;;4999514;28;20045;-81
2022/02/04 18:58:08;;;;;;;4.45;1.55;;;4.40;95.40;;;;;;5015390;28;20397;-85
2022/02/04 19:01:26;;;;;;;4.35;1.55;;;4.40;95.30;;;;;;5015251;28;20104;-87
2022/02/04 19:03:59;;;;;;;4.65;1.77;;;4.50;95.20;;;;;;5000146;28;20052;-81
2022/02/04 19:06:40;;;;;;;5.65;1.83;;;4.40;95.40;;;;;;5016265;28;20045;-89
2022/02/04 19:09:23;;;;;;;5.70;1.40;;;4.30;95.20;;;;;;4974601;28;20154;-82
2022/02/04 19:11:55;;;;;;;3.80;1.92;;;4.30;95.20;;;;;;5015756;28;20117;-86
2022/02/04 19:17:08;;;;;;;4.90;1.60;;;4.40;95.30;;;;;;5014900;28;20057;-83
2022/02/04 19:19:47;;;;;;;6.00;1.85;;;4.40;95.30;;;;;;4997951;28;20054;-83
2022/02/04 19:22:29;;;;;;;5.90;1.48;;;4.40;95.20;;;;;;4997977;28;20049;-83
2022/02/04 19:24:59;;;;;;;7.47;1.80;;;4.40;95.20;;;;;;4999963;28;20050;-82
2022/02/04 19:27:28;;;;;;;4.90;2.22;;;4.40;95.20;;;;;;4998369;28;20046;-86
2022/02/04 19:29:56;;;;;;;4.85;2.10;;;4.40;95.30;;;;;;5014161;28;20133;-83
2022/02/04 19:32:24;;;;;;;5.80;2.00;;;4.40;95.30;;;;;;5014996;28;20046;-92
2022/02/04 19:44:07;;;;;;;3.03;1.52;;;4.30;95.30;;;;;;4970855;28;20054;-88
2022/02/04 19:46:38;;;;;;;1.55;0.70;;;4.30;95.50;;;;;;4945397;28;20070;-86
2022/02/04 19:49:51;;;;;;;2.83;1.20;;;4.30;95.50;;;;;;4944230;28;20051;-88
2022/02/04 19:52:30;;;;;;;3.88;1.20;;;4.30;95.50;;;;;;4942216;28;20057;-88
2022/02/04 20:29:46;;;;;;;6.72;2.85;;;4.50;95.50;;;;;;4978514;28;20391;-85
2022/02/04 20:32:16;;;;;;;6.93;2.88;;;4.40;95.60;;;;;;4994234;28;20054;-90
2022/02/04 20:34:46;;;;;;;7.80;3.20;;;4.40;95.60;;;;;;5009421;28;20057;-87
2022/02/04 20:37:20;;;;;;;9.18;3.47;;;4.30;95.60;;;;;;4993963;28;20054;-84
2022/02/04 20:39:53;;;;;;;8.35;3.92;;;4.30;95.70;;;;;;5010975;28;20442;-92
2022/02/04 20:42:21;;;;;;;10.77;4.10;;;4.30;95.70;;;;;;5010333;28;20042;-85
2022/02/04 20:45:20;;;;;;;8.95;3.60;;;4.30;95.80;;;;;;4994503;28;20057;-89
2022/02/04 20:47:55;;;;;;;9.90;4.50;;;4.30;95.80;;;;;;5006763;28;20388;-89
2022/02/04 20:50:28;;;;;;;8.85;4.28;;;4.30;96.00;;;;;;4980515;28;20042;-83
2022/02/04 20:52:58;;;;;;;9.48;4.55;;;4.30;96.00;;;;;;4996874;28;20045;-85
2022/02/04 20:55:38;;;;;;;10.73;5.10;;;4.40;96.00;;;;;;4997048;28;20167;-87
2022/02/04 20:58:17;;;;;;;11.38;4.07;;;4.40;95.90;;;;;;5013498;28;20470;-90
2022/02/04 21:00:49;;;;;;;10.27;4.30;;;4.50;95.90;;;;;;4996945;28;20862;-90
2022/02/04 21:03:20;;;;;;;7.43;3.70;;;4.40;95.90;;;;;;4996399;28;20059;-85
2022/02/04 21:05:58;;;;;;;8.70;3.55;;;4.50;96.00;;;;;;4996787;28;20073;-92
2022/02/04 21:21:41;;;;;;;9.95;3.45;;;4.60;95.80;;;;;;5014257;28;20085;-88
2022/02/04 21:24:20;;;;;;;9.05;3.42;;;4.70;95.80;;;;;;5000288;28;20045;-87
2022/02/04 21:26:53;;;;;;;8.00;3.80;;;4.70;95.90;;;;;;4994447;28;20053;-89
2022/02/04 21:29:33;;;;;;;8.02;3.47;;;4.70;95.80;;;;;;5013993;28;20048;-90
2022/02/04 21:32:11;;;;;;;10.77;3.45;;;4.70;95.80;;;;;;4988734;28;20568;-90
2022/02/04 21:38:58;;;;;;;8.05;2.83;;;4.70;95.90;;;;;;5025017;28;20056;-90
2022/02/04 21:41:43;;;;;;;5.75;3.00;;;4.70;95.90;;;;;;5010321;28;20539;-89
2022/02/04 21:44:20;;;;;;;5.00;2.72;;;4.70;95.90;;;;;;5012919;28;20041;-87
2022/02/04 21:46:47;;;;;;;8.95;3.08;;;4.70;95.90;;;;;;4967504;28;20477;-85
2022/02/04 21:49:30;;;;;;;7.93;3.20;;;4.80;95.90;;;;;;4999936;28;20120;-88